createdAt,value
2023-04-19T00:00:34.885Z,2835.00
2023-04-19T00:01:34.903Z,2868.00
2023-04-19T00:02:35.028Z,2864.00
2023-04-19T00:03:35.210Z,2843.00
2023-04-19T00:04:35.056Z,2848.00
2023-04-19T00:05:34.970Z,2848.00
2023-04-19T00:06:34.990Z,2825.00
2023-04-19T00:07:35.006Z,2856.00
2023-04-19T00:08:35.057Z,2815.00
2023-04-19T00:09:35.053Z,2821.00
2023-04-19T00:10:35.055Z,2853.00
2023-04-19T00:11:35.073Z,2847.00
2023-04-19T00:12:35.105Z,2864.00
2023-04-19T00:13:35.107Z,2833.00
2023-04-19T00:14:35.116Z,2828.00
2023-04-19T00:15:35.181Z,2855.00
2023-04-19T00:16:35.188Z,2833.00
2023-04-19T00:17:35.241Z,2823.00
2023-04-19T00:18:35.186Z,2842.00
2023-04-19T00:19:35.220Z,2843.00
2023-04-19T00:20:35.221Z,2840.00
2023-04-19T00:21:35.218Z,2852.00
2023-04-19T00:22:35.253Z,2855.00
2023-04-19T00:23:35.251Z,2871.00
2023-04-19T00:24:35.278Z,2874.00
2023-04-19T00:25:35.288Z,2873.00
2023-04-19T00:26:35.291Z,2868.00
2023-04-19T00:27:35.319Z,2865.00
2023-04-19T00:28:35.336Z,2870.00
2023-04-19T00:29:35.335Z,2886.00
2023-04-19T00:30:35.383Z,2860.00
2023-04-19T00:31:35.361Z,2867.00
2023-04-19T00:32:35.410Z,2862.00
2023-04-19T00:33:35.391Z,2865.00
2023-04-19T00:34:35.407Z,2840.00
2023-04-19T00:35:35.417Z,2850.00
2023-04-19T00:36:35.441Z,2881.00
2023-04-19T00:37:35.449Z,2853.00
2023-04-19T00:38:35.464Z,2846.00
2023-04-19T00:39:35.490Z,2863.00
2023-04-19T00:40:35.487Z,2857.00
2023-04-19T00:41:35.500Z,2841.00
2023-04-19T00:42:35.517Z,2864.00
2023-04-19T00:43:35.549Z,2857.00
2023-04-19T00:44:35.571Z,2861.00
2023-04-19T00:45:35.563Z,2852.00
2023-04-19T00:46:35.612Z,2857.00
2023-04-19T00:47:35.636Z,2886.00
2023-04-19T00:48:35.626Z,2875.00
2023-04-19T00:49:35.642Z,2850.00
2023-04-19T00:50:35.656Z,2872.00
2023-04-19T00:51:35.671Z,2861.00
2023-04-19T00:52:35.690Z,2869.00
2023-04-19T00:53:35.694Z,2872.00
2023-04-19T00:54:35.733Z,2875.00
2023-04-19T00:55:35.742Z,2865.00
2023-04-19T00:56:35.745Z,2869.00
2023-04-19T00:57:35.760Z,2876.00
2023-04-19T00:58:35.787Z,2857.00
2023-04-19T00:59:35.810Z,2875.00
2023-04-19T01:00:35.826Z,2864.00
2023-04-19T01:01:35.866Z,2867.00
2023-04-19T01:02:36.024Z,2877.00
2023-04-19T01:03:36.136Z,2867.00
2023-04-19T01:04:35.971Z,2875.00
2023-04-19T01:05:35.906Z,2870.00
2023-04-19T01:06:35.918Z,2880.00
2023-04-19T01:07:35.925Z,2874.00
2023-04-19T01:08:35.950Z,2874.00
2023-04-19T01:09:35.948Z,2849.00
2023-04-19T01:10:35.959Z,2868.00
2023-04-19T01:11:35.976Z,2867.00
2023-04-19T01:12:35.997Z,2870.00
2023-04-19T01:13:36.003Z,2874.00
2023-04-19T01:14:36.001Z,2864.00
2023-04-19T01:15:36.070Z,2882.00
2023-04-19T01:16:36.042Z,2869.00
2023-04-19T01:17:36.084Z,2869.00
2023-04-19T01:18:36.071Z,2863.00
2023-04-19T01:19:36.062Z,2874.00
2023-04-19T01:20:36.083Z,2878.00
2023-04-19T01:21:36.096Z,2877.00
2023-04-19T01:22:36.100Z,2855.00
2023-04-19T01:23:36.126Z,2862.00
2023-04-19T01:24:36.142Z,2843.00
2023-04-19T01:25:36.124Z,2847.00
2023-04-19T01:26:36.183Z,2863.00
2023-04-19T01:27:36.184Z,2847.00
2023-04-19T01:28:36.181Z,2846.00
2023-04-19T01:29:36.186Z,2853.00
2023-04-19T01:30:36.197Z,2846.00
2023-04-19T01:31:36.225Z,2842.00
2023-04-19T01:32:36.212Z,2855.00
2023-04-19T01:33:36.212Z,2842.00
2023-04-19T01:34:36.244Z,2834.00
2023-04-19T01:35:36.232Z,2857.00
2023-04-19T01:36:36.264Z,2847.00
2023-04-19T01:37:36.274Z,2835.00
2023-04-19T01:38:36.274Z,2837.00
2023-04-19T01:39:36.289Z,2836.00
2023-04-19T01:40:36.311Z,2828.00
2023-04-19T01:41:36.323Z,2830.00
2023-04-19T01:42:36.314Z,2838.00
2023-04-19T01:43:36.341Z,2828.00
2023-04-19T01:44:36.354Z,2823.00
2023-04-19T01:45:36.372Z,2831.00
2023-04-19T01:46:36.403Z,2821.00
2023-04-19T01:47:36.438Z,2822.00
2023-04-19T01:48:36.403Z,2810.00
2023-04-19T01:49:36.411Z,2808.00
2023-04-19T01:50:36.430Z,2816.00
2023-04-19T01:51:36.426Z,2816.00
2023-04-19T01:52:36.435Z,2809.00
2023-04-19T01:53:36.468Z,2801.00
2023-04-19T01:54:36.460Z,2813.00
2023-04-19T01:55:36.487Z,2804.00
2023-04-19T01:56:36.498Z,2805.00
2023-04-19T01:57:36.517Z,2787.00
2023-04-19T01:58:36.513Z,2793.00
2023-04-19T01:59:36.554Z,2798.00
2023-04-19T02:00:36.598Z,2793.00
2023-04-19T02:01:36.567Z,2792.00
2023-04-19T02:02:36.850Z,2794.00
2023-04-19T02:03:36.747Z,2778.00
2023-04-19T02:04:36.621Z,2786.00
2023-04-19T02:05:36.634Z,2784.00
2023-04-19T02:06:36.635Z,2788.00
2023-04-19T02:07:36.659Z,2779.00
2023-04-19T02:08:36.655Z,2775.00
2023-04-19T02:09:36.673Z,2772.00
2023-04-19T02:10:36.714Z,2782.00
2023-04-19T02:11:36.725Z,2770.00
2023-04-19T02:12:36.716Z,2768.00
2023-04-19T02:13:36.734Z,2781.00
2023-04-19T02:14:36.773Z,2773.00
2023-04-19T02:15:36.774Z,2787.00
2023-04-19T02:16:36.838Z,2788.00
2023-04-19T02:17:36.856Z,2781.00
2023-04-19T02:18:36.829Z,2772.00
2023-04-19T02:19:36.823Z,2757.00
2023-04-19T02:20:36.846Z,2752.00
2023-04-19T02:21:36.859Z,2761.00
2023-04-19T02:22:36.881Z,2745.00
2023-04-19T02:23:36.906Z,2754.00
2023-04-19T02:24:36.905Z,2753.00
2023-04-19T02:25:36.945Z,2744.00
2023-04-19T02:26:36.940Z,2737.00
2023-04-19T02:27:36.997Z,2734.00
2023-04-19T02:28:36.986Z,2753.00
2023-04-19T02:29:37.019Z,2739.00
2023-04-19T02:30:37.041Z,2745.00
2023-04-19T02:31:37.086Z,2742.00
2023-04-19T02:32:37.123Z,2733.00
2023-04-19T02:33:37.081Z,2721.00
2023-04-19T02:34:37.086Z,2724.00
2023-04-19T02:35:37.100Z,2738.00
2023-04-19T02:36:37.135Z,2728.00
2023-04-19T02:37:37.149Z,2727.00
2023-04-19T02:38:37.172Z,2730.00
2023-04-19T02:39:37.186Z,2703.00
2023-04-19T02:40:37.193Z,2705.00
2023-04-19T02:41:37.220Z,2712.00
2023-04-19T02:42:37.224Z,2715.00
2023-04-19T02:43:37.250Z,2714.00
2023-04-19T02:44:37.252Z,2704.00
2023-04-19T02:45:37.367Z,2723.00
2023-04-19T02:46:37.388Z,2704.00
2023-04-19T02:47:37.326Z,2702.00
2023-04-19T02:48:37.358Z,2710.00
2023-04-19T02:49:37.351Z,2708.00
2023-04-19T02:50:37.362Z,2703.00
2023-04-19T02:51:37.372Z,2704.00
2023-04-19T02:52:37.390Z,2704.00
2023-04-19T02:53:37.392Z,2693.00
2023-04-19T02:54:37.428Z,2697.00
2023-04-19T02:55:37.436Z,2697.00
2023-04-19T02:56:37.447Z,2692.00
2023-04-19T02:57:37.457Z,2694.00
2023-04-19T02:58:37.479Z,2701.00
2023-04-19T02:59:37.479Z,2696.00
2023-04-19T03:00:37.512Z,2691.00
2023-04-19T03:01:37.648Z,2686.00
2023-04-19T03:02:37.627Z,2685.00
2023-04-19T03:03:37.619Z,2684.00
2023-04-19T03:04:37.603Z,2681.00
2023-04-19T03:05:37.565Z,2675.00
2023-04-19T03:06:37.595Z,2682.00
2023-04-19T03:07:37.617Z,2677.00
2023-04-19T03:08:37.640Z,2680.00
2023-04-19T03:09:37.652Z,2676.00
2023-04-19T03:10:37.652Z,2673.00
2023-04-19T03:11:37.655Z,2668.00
2023-04-19T03:12:37.690Z,2670.00
2023-04-19T03:13:37.682Z,2674.00
2023-04-19T03:14:37.717Z,2663.00
2023-04-19T03:15:37.744Z,2668.00
2023-04-19T03:16:37.720Z,2663.00
2023-04-19T03:17:37.877Z,2660.00
2023-04-19T03:18:37.748Z,2667.00
2023-04-19T03:19:37.780Z,2655.00
2023-04-19T03:20:37.771Z,2671.00
2023-04-19T03:21:37.782Z,2659.00
2023-04-19T03:22:37.838Z,2649.00
2023-04-19T03:23:37.869Z,2642.00
2023-04-19T03:24:38.315Z,2653.00
2023-04-19T03:25:37.850Z,2654.00
2023-04-19T03:26:37.852Z,2653.00
2023-04-19T03:27:37.888Z,2638.00
2023-04-19T03:28:37.911Z,2644.00
2023-04-19T03:29:37.921Z,2640.00
2023-04-19T03:30:37.956Z,2637.00
2023-04-19T03:31:37.994Z,2634.00
2023-04-19T03:32:38.038Z,2638.00
2023-04-19T03:33:37.986Z,2646.00
2023-04-19T03:34:38.038Z,2632.00
2023-04-19T03:35:38.024Z,2637.00
2023-04-19T03:36:38.042Z,2629.00
2023-04-19T03:37:38.056Z,2627.00
2023-04-19T03:38:38.092Z,2606.00
2023-04-19T03:39:38.094Z,2621.00
2023-04-19T03:40:38.103Z,2614.00
2023-04-19T03:41:38.138Z,2619.00
2023-04-19T03:42:38.141Z,2619.00
2023-04-19T03:43:38.168Z,2599.00
2023-04-19T03:44:38.184Z,2604.00
2023-04-19T03:45:38.184Z,2611.00
2023-04-19T03:46:38.272Z,2611.00
2023-04-19T03:47:38.268Z,2603.00
2023-04-19T03:48:38.242Z,2601.00
2023-04-19T03:49:38.264Z,2615.00
2023-04-19T03:50:38.290Z,2610.00
2023-04-19T03:51:38.287Z,2610.00
2023-04-19T03:52:38.319Z,2604.00
2023-04-19T03:53:38.355Z,2601.00
2023-04-19T03:54:38.361Z,2602.00
2023-04-19T03:55:38.388Z,2587.00
2023-04-19T03:56:38.380Z,2590.00
2023-04-19T03:57:38.406Z,2583.00
2023-04-19T03:58:38.761Z,2586.00
2023-04-19T03:59:38.454Z,2593.00
2023-04-19T04:00:38.511Z,2578.00
2023-04-19T04:01:38.525Z,2594.00
2023-04-19T04:02:38.668Z,2584.00
2023-04-19T04:03:38.696Z,2606.00
2023-04-19T04:04:38.776Z,2585.00
2023-04-19T04:05:38.606Z,2572.00
2023-04-19T04:06:38.600Z,2575.00
2023-04-19T04:07:38.567Z,2585.00
2023-04-19T04:08:38.596Z,2578.00
2023-04-19T04:09:38.611Z,2579.00
2023-04-19T04:10:38.621Z,2575.00
2023-04-19T04:11:38.641Z,2577.00
2023-04-19T04:12:38.672Z,2575.00
2023-04-19T04:13:38.677Z,2573.00
2023-04-19T04:14:38.701Z,2566.00
2023-04-19T04:15:38.714Z,2568.00
2023-04-19T04:16:38.752Z,2568.00
2023-04-19T04:17:38.792Z,2559.00
2023-04-19T04:18:38.755Z,2554.00
2023-04-19T04:19:38.760Z,2567.00
2023-04-19T04:20:38.787Z,2556.00
2023-04-19T04:21:38.824Z,2558.00
2023-04-19T04:22:38.822Z,2553.00
2023-04-19T04:23:38.848Z,2559.00
2023-04-19T04:24:38.858Z,2573.00
2023-04-19T04:25:38.862Z,2567.00
2023-04-19T04:26:38.878Z,2560.00
2023-04-19T04:27:38.908Z,2555.00
2023-04-19T04:28:38.933Z,2569.00
2023-04-19T04:29:38.939Z,2574.00
2023-04-19T04:30:38.973Z,2553.00
2023-04-19T04:31:39.041Z,2562.00
2023-04-19T04:32:39.038Z,2574.00
2023-04-19T04:33:39.016Z,2558.00
2023-04-19T04:34:39.050Z,2572.00
2023-04-19T04:35:39.050Z,2570.00
2023-04-19T04:36:39.066Z,2582.00
2023-04-19T04:37:39.114Z,2576.00
2023-04-19T04:38:39.101Z,2576.00
2023-04-19T04:39:39.133Z,2577.00
2023-04-19T04:40:39.151Z,2597.00
2023-04-19T04:41:39.170Z,2582.00
2023-04-19T04:42:39.188Z,2580.00
2023-04-19T04:43:39.183Z,2575.00
2023-04-19T04:44:39.253Z,2581.00
2023-04-19T04:45:39.265Z,2566.00
2023-04-19T04:46:39.263Z,2568.00
2023-04-19T04:47:39.319Z,2566.00
2023-04-19T04:48:39.283Z,2563.00
2023-04-19T04:49:39.314Z,2557.00
2023-04-19T04:50:39.322Z,2548.00
2023-04-19T04:51:39.359Z,2555.00
2023-04-19T04:52:39.372Z,2554.00
2023-04-19T04:53:39.371Z,2552.00
2023-04-19T04:54:39.400Z,2480.00
2023-04-19T04:55:39.421Z,2447.00
2023-04-19T04:56:39.488Z,2401.00
2023-04-19T04:57:39.458Z,2390.00
2023-04-19T04:58:39.468Z,2492.00
2023-04-19T04:59:39.506Z,2505.00
2023-04-19T05:00:39.501Z,2513.00
2023-04-19T05:01:39.544Z,2507.00
2023-04-19T05:02:39.608Z,2451.00
2023-04-19T05:03:39.607Z,2449.00
2023-04-19T05:04:39.606Z,2463.00
2023-04-19T05:05:39.613Z,2491.00
2023-04-19T05:06:39.617Z,2527.00
2023-04-19T05:07:39.635Z,2519.00
2023-04-19T05:08:39.653Z,2523.00
2023-04-19T05:09:39.681Z,2532.00
2023-04-19T05:10:39.697Z,2505.00
2023-04-19T05:11:39.715Z,2444.00
2023-04-19T05:12:39.770Z,2472.00
2023-04-19T05:13:39.763Z,2417.00
2023-04-19T05:14:39.766Z,2458.00
2023-04-19T05:15:39.788Z,2523.00
2023-04-19T05:16:39.863Z,2515.00
2023-04-19T05:17:39.839Z,2519.00
2023-04-19T05:18:39.830Z,2525.00
2023-04-19T05:19:39.809Z,2515.00
2023-04-19T05:20:39.842Z,2530.00
2023-04-19T05:21:39.834Z,2531.00
2023-04-19T05:22:39.816Z,2511.00
2023-04-19T05:23:39.819Z,2519.00
2023-04-19T05:24:41.821Z,2526.00
2023-04-19T05:25:39.835Z,2521.00
2023-04-19T05:26:39.835Z,2440.00
2023-04-19T05:27:39.831Z,2448.00
2023-04-19T05:28:40.063Z,2449.00
2023-04-19T05:29:39.863Z,2485.00
2023-04-19T05:30:39.856Z,2510.00
2023-04-19T05:31:39.892Z,2517.00
2023-04-19T05:32:39.959Z,2538.00
2023-04-19T05:33:39.868Z,2575.00
2023-04-19T05:34:39.902Z,2601.00
2023-04-19T05:35:39.901Z,2632.00
2023-04-19T05:36:39.904Z,2646.00
2023-04-19T05:37:39.931Z,2648.00
2023-04-19T05:38:39.966Z,2682.00
2023-04-19T05:39:41.149Z,2684.00
2023-04-19T05:40:39.925Z,2736.00
2023-04-19T05:41:39.927Z,2778.00
2023-04-19T05:42:39.905Z,2827.00
2023-04-19T05:43:39.907Z,2879.00
2023-04-19T05:44:39.914Z,2931.00
2023-04-19T05:45:39.888Z,2959.00
2023-04-19T05:46:39.936Z,2993.00
2023-04-19T05:47:39.990Z,2981.00
2023-04-19T05:48:39.862Z,3000.00
2023-04-19T05:49:41.407Z,3074.00
2023-04-19T05:50:39.889Z,3077.00
2023-04-19T05:51:39.858Z,3084.00
2023-04-19T05:52:39.856Z,3105.00
2023-04-19T05:53:39.842Z,3154.00
2023-04-19T05:54:39.839Z,3195.00
2023-04-19T05:55:39.841Z,3205.00
2023-04-19T05:56:39.842Z,3207.00
2023-04-19T05:57:39.837Z,3246.00
2023-04-19T05:58:39.849Z,3293.00
2023-04-19T05:59:39.806Z,3308.00
2023-04-19T06:00:39.795Z,3320.00
2023-04-19T06:01:39.831Z,3318.00
2023-04-19T06:02:39.887Z,3350.00
2023-04-19T06:03:40.029Z,3361.00
2023-04-19T06:04:39.979Z,3347.00
2023-04-19T06:05:39.819Z,3327.00
2023-04-19T06:06:39.804Z,3355.00
2023-04-19T06:07:43.304Z,3342.00
2023-04-19T06:08:40.773Z,3344.00
2023-04-19T06:09:39.752Z,3345.00
2023-04-19T06:10:51.920Z,3361.00
2023-04-19T06:11:50.089Z,3346.00
2023-04-19T06:12:40.741Z,3348.00
2023-04-19T06:13:39.705Z,3365.00
2023-04-19T06:14:39.704Z,3392.00
2023-04-19T06:15:39.731Z,3421.00
2023-04-19T06:16:39.740Z,3456.00
2023-04-19T06:17:39.720Z,3528.00
2023-04-19T06:18:39.693Z,3507.00
2023-04-19T06:19:39.690Z,3702.00
2023-04-19T06:20:39.672Z,3522.00
2023-04-19T06:21:39.668Z,3441.00
2023-04-19T06:22:39.673Z,3468.00
2023-04-19T06:23:39.640Z,3447.00
2023-04-19T06:24:40.088Z,3427.00
2023-04-19T06:25:39.649Z,3365.00
2023-04-19T06:26:39.634Z,3444.00
2023-04-19T06:27:39.615Z,3471.00
2023-04-19T06:28:39.628Z,3420.00
2023-04-19T06:29:39.633Z,3412.00
2023-04-19T06:30:40.105Z,3384.00
2023-04-19T06:31:39.669Z,3279.00
2023-04-19T06:32:39.644Z,3069.00
2023-04-19T06:33:39.592Z,2746.00
2023-04-19T06:34:39.590Z,2647.00
2023-04-19T06:35:39.593Z,2747.00
2023-04-19T06:36:39.558Z,2846.00
2023-04-19T06:37:39.557Z,2894.00
2023-04-19T06:38:39.577Z,2929.00
2023-04-19T06:39:39.541Z,3077.00
2023-04-19T06:40:39.529Z,3028.00
2023-04-19T06:41:39.554Z,3228.00
2023-04-19T06:42:39.532Z,3310.00
2023-04-19T06:43:39.513Z,3172.00
2023-04-19T06:44:39.582Z,3233.00
2023-04-19T06:45:39.621Z,3229.00
2023-04-19T06:46:39.495Z,3184.00
2023-04-19T06:47:39.537Z,3218.00
2023-04-19T06:48:39.472Z,3137.00
2023-04-19T06:49:39.468Z,3229.00
2023-04-19T06:50:39.460Z,3198.00
2023-04-19T06:51:39.462Z,3155.00
2023-04-19T06:52:39.449Z,3095.00
2023-04-19T06:53:39.446Z,3148.00
2023-04-19T06:54:39.449Z,3201.00
2023-04-19T06:55:39.590Z,3223.00
2023-04-19T06:56:39.690Z,3231.00
2023-04-19T06:57:39.432Z,3220.00
2023-04-19T06:58:39.411Z,3195.00
2023-04-19T06:59:39.603Z,3243.00
2023-04-19T07:00:39.410Z,3176.00
2023-04-19T07:01:39.449Z,3151.00
2023-04-19T07:02:39.773Z,3195.00
2023-04-19T07:03:39.502Z,3236.00
2023-04-19T07:04:39.519Z,3238.00
2023-04-19T07:05:39.615Z,3232.00
2023-04-19T07:06:39.386Z,3221.00
2023-04-19T07:07:39.356Z,3185.00
2023-04-19T07:08:49.294Z,3210.00
2023-04-19T07:09:40.364Z,3210.00
2023-04-19T07:10:39.357Z,3077.00
2023-04-19T07:11:39.348Z,3150.00
2023-04-19T07:12:39.337Z,3119.00
2023-04-19T07:13:39.316Z,3166.00
2023-04-19T07:14:39.377Z,3176.00
2023-04-19T07:15:39.629Z,3175.00
2023-04-19T07:16:39.309Z,3152.00
2023-04-19T07:17:39.324Z,3154.00
2023-04-19T07:18:39.301Z,3136.00
2023-04-19T07:19:39.279Z,3114.00
2023-04-19T07:20:39.609Z,3108.00
2023-04-19T07:21:39.447Z,3102.00
2023-04-19T07:22:39.260Z,3103.00
2023-04-19T07:23:39.284Z,3147.00
2023-04-19T07:24:39.255Z,3174.00
2023-04-19T07:25:39.595Z,3260.00
2023-04-19T07:26:39.251Z,3184.00
2023-04-19T07:27:39.268Z,3132.00
2023-04-19T07:28:39.231Z,2998.00
2023-04-19T07:29:39.598Z,2863.00
2023-04-19T07:30:39.212Z,2540.00
2023-04-19T07:31:39.266Z,2047.00
2023-04-19T07:32:39.356Z,1883.00
2023-04-19T07:33:39.199Z,1739.00
2023-04-19T07:34:39.212Z,1773.00
2023-04-19T07:35:39.239Z,1746.00
2023-04-19T07:36:39.273Z,1681.00
2023-04-19T07:37:39.323Z,1751.00
2023-04-19T07:38:39.319Z,1864.00
2023-04-19T07:39:39.353Z,1999.00
2023-04-19T07:40:39.403Z,2129.00
2023-04-19T07:41:39.410Z,2228.00
2023-04-19T07:42:39.421Z,2403.00
2023-04-19T07:43:41.091Z,2443.00
2023-04-19T07:44:39.639Z,2457.00
2023-04-19T07:45:39.520Z,2443.00
2023-04-19T07:46:39.594Z,2468.00
2023-04-19T07:47:39.550Z,2480.00
2023-04-19T07:48:39.612Z,2565.00
2023-04-19T07:49:39.647Z,2556.00
2023-04-19T07:50:39.690Z,2620.00
2023-04-19T07:51:39.700Z,2566.00
2023-04-19T07:52:39.729Z,2595.00
2023-04-19T07:53:39.715Z,2625.00
2023-04-19T07:54:40.108Z,2558.00
2023-04-19T07:55:40.118Z,2619.00
2023-04-19T07:56:39.816Z,2666.00
2023-04-19T07:57:39.906Z,2740.00
2023-04-19T07:58:39.929Z,2757.00
2023-04-19T07:59:39.982Z,2697.00
2023-04-19T08:00:40.070Z,2731.00
2023-04-19T08:01:40.283Z,2809.00
2023-04-19T08:02:40.226Z,2851.00
2023-04-19T08:03:40.340Z,2826.00
2023-04-19T08:04:40.382Z,2837.00
2023-04-19T08:05:40.688Z,2859.00
2023-04-19T08:06:40.237Z,2886.00
2023-04-19T08:07:40.229Z,2907.00
2023-04-19T08:08:40.244Z,2886.00
2023-04-19T08:09:40.280Z,2862.00
2023-04-19T08:10:40.606Z,2898.00
2023-04-19T08:11:40.271Z,2921.00
2023-04-19T08:12:45.285Z,2921.00
2023-04-19T08:13:42.134Z,2923.00
2023-04-19T08:14:51.512Z,2924.00
2023-04-19T08:17:10.923Z,2926.00
2023-04-19T08:17:42.311Z,2924.00
2023-04-19T08:18:40.417Z,2934.00
2023-04-19T08:19:40.615Z,2944.00
2023-04-19T08:20:40.414Z,2949.00
2023-04-19T08:21:41.612Z,2945.00
2023-04-19T08:22:40.431Z,2940.00
2023-04-19T08:23:47.977Z,2951.00
2023-04-19T08:24:41.635Z,2952.00
2023-04-19T08:25:40.643Z,2911.00
2023-04-19T08:26:40.367Z,2971.00
2023-04-19T08:27:40.389Z,2983.00
2023-04-19T08:28:40.355Z,2996.00
2023-04-19T08:29:40.355Z,3041.00
2023-04-19T08:30:40.344Z,3024.00
2023-04-19T08:31:40.394Z,3006.00
2023-04-19T08:32:40.387Z,3052.00
2023-04-19T08:33:40.334Z,3067.00
2023-04-19T08:34:40.686Z,3073.00
2023-04-19T08:35:40.310Z,3066.00
2023-04-19T08:36:45.923Z,2792.00
2023-04-19T08:37:41.300Z,2621.00
2023-04-19T08:38:41.749Z,2712.00
2023-04-19T08:39:40.902Z,2757.00
2023-04-19T08:40:40.284Z,2760.00
2023-04-19T08:41:40.301Z,2716.00
2023-04-19T08:42:40.280Z,2749.00
2023-04-19T08:43:41.655Z,2832.00
2023-04-19T08:44:53.786Z,2868.00
2023-04-19T08:45:41.309Z,2870.00
2023-04-19T08:46:40.250Z,2876.00
2023-04-19T08:48:40.325Z,2935.00
2023-04-19T08:49:42.748Z,3006.00
2023-04-19T08:50:48.726Z,2874.00
2023-04-19T08:51:41.221Z,2875.00
2023-04-19T08:52:51.984Z,2893.00
2023-04-19T08:53:41.205Z,2874.00
2023-04-19T08:54:40.644Z,2891.00
2023-04-19T08:55:47.303Z,2941.00
2023-04-19T08:56:41.197Z,2876.00
2023-04-19T08:57:40.188Z,2896.00
2023-04-19T08:58:54.911Z,2939.00
2023-04-19T08:59:41.239Z,2876.00
2023-04-19T09:00:40.170Z,2905.00
2023-04-19T09:01:41.075Z,2957.00
2023-04-19T09:02:40.342Z,3018.00
2023-04-19T09:03:55.456Z,3130.00
2023-04-19T09:04:41.321Z,2878.00
2023-04-19T09:05:40.298Z,2909.00
2023-04-19T09:06:40.382Z,2962.00
2023-04-19T09:07:40.114Z,3036.00
2023-04-19T09:08:40.114Z,3145.00
2023-04-19T09:09:48.834Z,3167.00
2023-04-19T09:10:41.099Z,3168.00
2023-04-19T09:11:40.103Z,3173.00
2023-04-19T09:12:40.075Z,3178.00
2023-04-19T09:13:40.081Z,3192.00
2023-04-19T09:14:41.419Z,3197.00
2023-04-19T09:15:40.151Z,3201.00
2023-04-19T09:16:40.091Z,3194.00
2023-04-19T09:17:40.079Z,3176.00
2023-04-19T09:18:48.788Z,3162.00
2023-04-19T09:19:41.051Z,3164.00
2023-04-19T09:20:40.170Z,3165.00
2023-04-19T09:21:40.035Z,3150.00
2023-04-19T09:22:40.054Z,3138.00
2023-04-19T09:23:40.009Z,3121.00
2023-04-19T09:26:05.721Z,3054.00
2023-04-19T09:26:41.284Z,3056.00
2023-04-19T09:27:39.991Z,3056.00
2023-04-19T09:28:39.990Z,3055.00
2023-04-19T09:29:40.080Z,3045.00
2023-04-19T09:30:46.965Z,3032.00
2023-04-19T09:31:50.936Z,2931.00
2023-04-19T09:32:41.065Z,2866.00
2023-04-19T09:33:40.030Z,2904.00
2023-04-19T09:34:39.928Z,2912.00
2023-04-19T09:35:40.161Z,2855.00
2023-04-19T09:36:39.923Z,2871.00
2023-04-19T09:38:01.748Z,2867.00
2023-04-19T09:38:40.922Z,2868.00
2023-04-19T09:39:39.906Z,2868.00
2023-04-19T09:40:40.152Z,2856.00
2023-04-19T09:41:41.436Z,2858.00
2023-04-19T09:42:55.462Z,2855.00
2023-04-19T09:45:40.092Z,2868.00
2023-04-19T09:46:40.132Z,2853.00
2023-04-19T09:47:40.138Z,2855.00
2023-04-19T09:48:40.068Z,2838.00
2023-04-19T09:49:48.400Z,2854.00
2023-04-19T09:50:53.649Z,2868.00
2023-04-19T09:51:41.087Z,2868.00
2023-04-19T09:52:40.036Z,2869.00
2023-04-19T09:53:40.050Z,2840.00
2023-04-19T09:54:40.044Z,2847.00
2023-04-19T09:55:52.385Z,2840.00
2023-04-19T09:56:41.170Z,2868.00
2023-04-19T09:57:40.020Z,2866.00
2023-04-19T09:58:49.953Z,2848.00
2023-04-19T09:59:40.988Z,2868.00
2023-04-19T10:00:47.914Z,2870.00
2023-04-19T10:01:41.021Z,2869.00
2023-04-19T10:02:40.029Z,2871.00
2023-04-19T10:03:40.130Z,2869.00
2023-04-19T10:05:40.202Z,2707.00
2023-04-19T10:06:52.164Z,2683.00
2023-04-19T10:07:40.983Z,2783.00
2023-04-19T10:08:39.938Z,2795.00
2023-04-19T10:09:49.628Z,2766.00
2023-04-19T10:10:42.328Z,2811.00
2023-04-19T10:11:40.159Z,2801.00
2023-04-19T10:13:40.912Z,2788.00
2023-04-19T10:14:40.002Z,2743.00
2023-04-19T10:15:50.582Z,2711.00
2023-04-19T10:16:41.202Z,2755.00
2023-04-19T10:17:39.912Z,2713.00
2023-04-19T10:18:39.869Z,2509.00
2023-04-19T10:19:39.887Z,2575.00
2023-04-19T10:20:39.866Z,2293.00
2023-04-19T10:21:40.174Z,2155.00
2023-04-19T10:22:39.847Z,2212.00
2023-04-19T10:23:39.835Z,2287.00
2023-04-19T10:24:39.833Z,1907.00
2023-04-19T10:25:40.196Z,2014.00
2023-04-19T10:26:39.862Z,2027.00
2023-04-19T10:27:39.838Z,1823.00
2023-04-19T10:28:39.812Z,2120.00
2023-04-19T10:29:39.823Z,2322.00
2023-04-19T10:30:39.811Z,2315.00
2023-04-19T10:31:39.815Z,2427.00
2023-04-19T10:32:39.815Z,2162.00
2023-04-19T10:33:39.803Z,2462.00
2023-04-19T10:34:39.809Z,3192.00
2023-04-19T10:35:39.767Z,2153.00
2023-04-19T10:36:40.182Z,1721.00
2023-04-19T10:37:39.818Z,1635.00
2023-04-19T10:38:39.828Z,1576.00
2023-04-19T10:39:39.836Z,1694.00
2023-04-19T10:40:39.959Z,1801.00
2023-04-19T10:41:39.898Z,1697.00
2023-04-19T10:42:39.902Z,1923.00
2023-04-19T10:43:39.922Z,1947.00
2023-04-19T10:44:39.971Z,1938.00
2023-04-19T10:45:40.221Z,1993.00
2023-04-19T10:46:40.100Z,1926.00
2023-04-19T10:47:40.037Z,1730.00
2023-04-19T10:48:40.013Z,1754.00
2023-04-19T10:49:39.993Z,1749.00
2023-04-19T10:50:40.086Z,1853.00
2023-04-19T10:51:40.050Z,1778.00
2023-04-19T10:52:40.060Z,1646.00
2023-04-19T10:53:40.056Z,1526.00
2023-04-19T10:54:40.077Z,1496.00
2023-04-19T10:55:40.111Z,1500.00
2023-04-19T10:56:40.121Z,1491.00
2023-04-19T10:57:40.153Z,1521.00
2023-04-19T10:58:40.177Z,1607.00
2023-04-19T10:59:40.186Z,1520.00
2023-04-19T11:00:40.218Z,1784.00
2023-04-19T11:01:40.680Z,1915.00
2023-04-19T11:02:40.353Z,1985.00
2023-04-19T11:03:40.419Z,1874.00
2023-04-19T11:04:40.444Z,1977.00
2023-04-19T11:05:40.290Z,1804.00
2023-04-19T11:06:40.284Z,1780.00
2023-04-19T11:07:40.302Z,1595.00
2023-04-19T11:08:40.308Z,1589.00
2023-04-19T11:09:40.330Z,1540.00
2023-04-19T11:10:40.459Z,1520.00
2023-04-19T11:11:40.691Z,1429.00
2023-04-19T11:12:40.419Z,1132.00
2023-04-19T11:13:40.465Z,833.00
2023-04-19T11:14:40.529Z,788.00
2023-04-19T11:15:40.579Z,731.00
2023-04-19T11:16:46.199Z,632.00
2023-04-19T11:17:41.561Z,573.00
2023-04-19T11:18:40.538Z,523.00
2023-04-19T11:19:40.525Z,537.00
2023-04-19T11:20:40.583Z,519.00
2023-04-19T11:21:40.532Z,444.00
2023-04-19T11:22:40.520Z,464.00
2023-04-19T11:23:40.513Z,503.00
2023-04-19T11:24:40.496Z,513.00
2023-04-19T11:25:40.485Z,503.00
2023-04-19T11:26:40.482Z,520.00
2023-04-19T11:27:40.502Z,523.00
2023-04-19T11:28:40.467Z,506.00
2023-04-19T11:29:40.477Z,498.00
2023-04-19T11:30:40.479Z,507.00
2023-04-19T11:31:40.580Z,536.00
2023-04-19T11:32:40.612Z,510.00
2023-04-19T11:33:40.645Z,508.00
2023-04-19T11:34:40.648Z,553.00
2023-04-19T11:35:40.682Z,519.00
2023-04-19T11:36:40.762Z,497.00
2023-04-19T11:37:40.802Z,511.00
2023-04-19T11:38:40.879Z,520.00
2023-04-19T11:39:40.907Z,507.00
2023-04-19T11:40:40.970Z,531.00
2023-04-19T11:41:41.033Z,561.00
2023-04-19T11:42:41.099Z,569.00
2023-04-19T11:43:41.167Z,573.00
2023-04-19T11:44:41.189Z,600.00
2023-04-19T11:45:41.172Z,666.00
2023-04-19T11:46:41.265Z,726.00
2023-04-19T11:47:41.344Z,770.00
2023-04-19T11:48:41.333Z,873.00
2023-04-19T11:49:41.393Z,1015.00
2023-04-19T11:50:41.526Z,1072.00
2023-04-19T11:51:41.482Z,1135.00
2023-04-19T11:52:41.461Z,1226.00
2023-04-19T11:53:41.486Z,1372.00
2023-04-19T11:54:41.520Z,1407.00
2023-04-19T11:55:41.493Z,1409.00
2023-04-19T11:56:41.521Z,1433.00
2023-04-19T11:57:41.766Z,1472.00
2023-04-19T11:58:41.663Z,1558.00
2023-04-19T11:59:41.703Z,1620.00
2023-04-19T12:00:41.755Z,1673.00
2023-04-19T12:01:41.796Z,1786.00
2023-04-19T12:02:41.927Z,1937.00
2023-04-19T12:03:42.045Z,2029.00
2023-04-19T12:04:42.119Z,2084.00
2023-04-19T12:05:42.068Z,2133.00
2023-04-19T12:06:42.217Z,2194.00
2023-04-19T12:07:41.899Z,2301.00
2023-04-19T12:08:41.924Z,2413.00
2023-04-19T12:09:41.921Z,2430.00
2023-04-19T12:10:41.908Z,2460.00
2023-04-19T12:11:41.981Z,2437.00
2023-04-19T12:12:41.909Z,2402.00
2023-04-19T12:13:41.900Z,2371.00